createdAt,value
2022-12-25T00:04:05.381Z,6.96
2022-12-25T00:14:13.100Z,6.38
2022-12-25T00:24:21.021Z,7.65
2022-12-25T00:34:28.914Z,5.89
2022-12-25T00:44:36.843Z,6.08
2022-12-25T00:54:44.985Z,6.14
2022-12-25T01:04:54.631Z,6.63
2022-12-25T01:15:02.460Z,7.15
2022-12-25T01:25:10.310Z,6.68
2022-12-25T01:35:18.358Z,5.98
2022-12-25T01:45:26.511Z,5.98
2022-12-25T01:55:34.485Z,7.05
2022-12-25T02:05:42.354Z,6.22
2022-12-25T02:15:50.221Z,5.76
2022-12-25T02:26:00.649Z,5.69
2022-12-25T02:46:00.751Z,5.97
2022-12-25T02:56:08.610Z,6.08
2022-12-25T03:06:16.484Z,4.31
2022-12-25T03:16:24.382Z,4.17
2022-12-25T03:26:32.291Z,3.85
2022-12-25T03:36:40.130Z,4.19
2022-12-25T03:46:47.951Z,4.09
2022-12-25T03:56:55.783Z,4.9
2022-12-25T04:07:03.542Z,5.37
2022-12-25T04:17:11.331Z,4.91
2022-12-25T04:27:19.299Z,4.94
2022-12-25T04:37:27.071Z,5.03
2022-12-25T04:47:34.929Z,4.94
2022-12-25T04:57:42.813Z,4.17
2022-12-25T05:07:50.709Z,3.74
2022-12-25T05:17:58.412Z,3.54
2022-12-25T05:28:06.435Z,5.02
2022-12-25T05:38:14.392Z,5.08
2022-12-25T05:48:22.339Z,4.6
2022-12-25T05:58:30.170Z,3.71
2022-12-25T06:08:38.037Z,3.94
2022-12-25T06:18:45.902Z,3.75
2022-12-25T06:28:53.730Z,3.94
2022-12-25T06:39:01.564Z,3.8
2022-12-25T06:49:09.404Z,3.35
2022-12-25T06:59:17.196Z,3.26
2022-12-25T07:09:24.995Z,3.37
2022-12-25T07:19:32.920Z,3.34
2022-12-25T07:29:40.795Z,3.45
2022-12-25T07:39:48.564Z,3.64
2022-12-25T07:49:56.402Z,3.39
2022-12-25T08:00:04.376Z,3.45
2022-12-25T08:10:12.472Z,4.99
2022-12-25T08:20:22.228Z,3.78
2022-12-25T08:30:30.478Z,7.47
2022-12-25T08:40:38.546Z,9.54
2022-12-25T08:50:46.570Z,9.83
2022-12-25T09:01:07.473Z,5.84
2022-12-25T09:11:07.972Z,4.09
2022-12-25T09:21:11.415Z,3.62
2022-12-25T09:31:11.855Z,4.04
2022-12-25T09:41:17.973Z,4.05
2022-12-25T09:51:16.660Z,3.23
2022-12-25T10:01:25.954Z,3.13
2022-12-25T10:11:33.965Z,3.09
2022-12-25T10:21:44.275Z,3
2022-12-25T10:31:43.196Z,2.91
2022-12-25T10:41:51.870Z,3.13
2022-12-25T10:52:02.977Z,3.46
2022-12-25T11:02:00.288Z,2.77
2022-12-25T11:12:08.804Z,3.2
2022-12-25T11:22:29.402Z,2.48
2022-12-25T11:32:26.290Z,2.87
2022-12-25T11:42:36.679Z,2.84
2022-12-25T11:52:38.334Z,6.21
2022-12-25T12:02:36.432Z,5.08
2022-12-25T12:12:48.686Z,6.34
2022-12-25T12:22:51.686Z,5.98
2022-12-25T12:33:03.558Z,5.15
2022-12-25T12:43:01.716Z,5.92
2022-12-25T12:53:09.859Z,5.72
2022-12-25T13:03:18.271Z,6.61
2022-12-25T13:13:26.280Z,5.16
2022-12-25T13:23:35.021Z,6.05
2022-12-25T13:33:43.191Z,5.92
2022-12-25T13:43:51.511Z,5.39
2022-12-25T13:54:00.943Z,4.91
2022-12-25T14:04:09.516Z,5.1
2022-12-25T14:14:17.623Z,4.38
2022-12-25T14:24:28.061Z,4.69
2022-12-25T14:34:26.175Z,5.1
2022-12-25T14:44:36.803Z,5.63
2022-12-25T14:54:36.363Z,5.65
2022-12-25T15:04:44.787Z,5.95
2022-12-25T15:14:52.955Z,6.21
2022-12-25T15:25:02.921Z,7.38
2022-12-25T15:35:11.793Z,7.65
2022-12-25T15:45:19.888Z,8.98
2022-12-25T15:55:27.908Z,9.31
2022-12-25T16:05:37.229Z,8.63
2022-12-25T16:15:46.864Z,10.07
2022-12-25T16:25:54.990Z,12.88
2022-12-25T16:36:03.003Z,10.31
2022-12-25T16:46:11.032Z,10.84
2022-12-25T16:56:19.361Z,13.3
2022-12-25T17:16:33.894Z,15.83
2022-12-25T17:26:33.732Z,15.64
2022-12-25T17:36:42.876Z,15.98
2022-12-25T17:46:51.100Z,17.48
2022-12-25T17:57:02.156Z,15.46
2022-12-25T18:07:01.644Z,18.22
2022-12-25T18:17:10.049Z,43.83
2022-12-25T18:27:18.724Z,15.2
2022-12-25T18:37:27.514Z,16.95
2022-12-25T18:47:37.852Z,25.45
2022-12-25T18:57:36.911Z,17.54
2022-12-25T19:07:48.122Z,17.75
2022-12-25T19:17:48.258Z,14.05
2022-12-25T19:27:47.570Z,9.26
2022-12-25T19:37:55.793Z,11.15
2022-12-25T19:48:10.868Z,10.16
2022-12-25T19:58:13.957Z,8.14
2022-12-25T20:08:13.250Z,13.64
2022-12-25T20:28:30.210Z,9.36
2022-12-25T20:38:28.275Z,10.15
2022-12-25T20:48:37.083Z,9.8
2022-12-25T20:58:50.922Z,8.54
2022-12-25T21:09:19.259Z,8.1
2022-12-25T21:19:03.610Z,10.26
2022-12-25T21:29:01.581Z,10.4
2022-12-25T21:39:15.631Z,8.4
2022-12-25T21:49:14.668Z,7.34
2022-12-25T21:59:47.146Z,7.74
2022-12-25T22:09:29.778Z,9.93
2022-12-25T22:19:30.633Z,8.25
2022-12-25T22:29:28.550Z,7.53
2022-12-25T22:39:38.723Z,6.9
2022-12-25T22:49:36.901Z,7.6
2022-12-25T22:59:45.147Z,6.96
2022-12-25T23:09:54.094Z,8.27
2022-12-25T23:20:02.031Z,7.31
2022-12-25T23:30:09.951Z,8.06
2022-12-25T23:40:17.839Z,7.37
2022-12-25T23:50:25.690Z,6.95
